createdAt,value
2018-07-12T00:02:02.662Z,15.30
2018-07-12T00:04:29.914Z,15.30
2018-07-12T00:06:57.171Z,15.30
2018-07-12T00:09:24.428Z,15.20
2018-07-12T00:11:51.876Z,15.20
2018-07-12T00:16:46.670Z,15.10
2018-07-12T00:19:14.146Z,15.10
2018-07-12T00:21:41.405Z,15.00
2018-07-12T00:24:08.650Z,15.00
2018-07-12T00:26:35.933Z,15.00
2018-07-12T00:29:05.828Z,14.90
2018-07-12T00:34:07.709Z,14.80
2018-07-12T00:36:37.498Z,14.80
2018-07-12T00:39:05.437Z,14.70
2018-07-12T00:41:32.923Z,14.70
2018-07-12T00:44:00.163Z,14.60
2018-07-12T00:46:27.417Z,14.60
2018-07-12T00:48:54.667Z,14.60
2018-07-12T00:51:21.914Z,14.50
2018-07-12T00:53:49.242Z,14.50
2018-07-12T00:58:44.002Z,14.40
2018-07-12T01:01:11.268Z,14.40
2018-07-12T01:03:38.797Z,14.30
2018-07-12T01:06:06.151Z,14.30
2018-07-12T01:08:33.394Z,14.30
2018-07-12T01:11:02.950Z,14.30
2018-07-12T01:13:30.210Z,14.20
2018-07-12T01:15:57.482Z,14.20
2018-07-12T01:18:24.755Z,14.10
2018-07-12T01:20:52.010Z,14.10
2018-07-12T01:23:19.262Z,14.20
2018-07-12T01:25:46.490Z,14.20
2018-07-12T01:28:14.011Z,14.20
2018-07-12T01:30:41.844Z,14.20
2018-07-12T01:33:09.909Z,14.20
2018-07-12T01:35:37.676Z,14.30
2018-07-12T01:38:05.014Z,14.40
2018-07-12T01:40:32.390Z,14.50
2018-07-12T01:43:00.242Z,14.60
2018-07-12T01:45:27.616Z,14.60
2018-07-12T01:47:57.190Z,14.50
2018-07-12T01:50:24.681Z,14.50
2018-07-12T01:52:52.153Z,14.50
2018-07-12T01:55:23.399Z,14.50
2018-07-12T01:57:54.100Z,14.50
2018-07-12T02:00:24.873Z,14.50
2018-07-12T02:02:57.612Z,14.50
2018-07-12T02:05:24.938Z,14.50
2018-07-12T02:07:52.170Z,14.50
2018-07-12T02:10:20.478Z,14.40
2018-07-12T02:12:49.219Z,14.30
2018-07-12T02:15:16.708Z,14.20
2018-07-12T02:17:43.948Z,14.20
2018-07-12T02:20:11.448Z,14.20
2018-07-12T02:25:12.790Z,14.20
2018-07-12T02:27:40.499Z,14.10
2018-07-12T02:30:08.277Z,14.10
2018-07-12T02:32:36.014Z,14.10
2018-07-12T02:35:03.407Z,14.10
2018-07-12T02:37:30.745Z,14.00
2018-07-12T02:39:57.988Z,14.00
2018-07-12T02:42:25.236Z,14.00
2018-07-12T02:44:52.760Z,14.00
2018-07-12T02:47:25.785Z,14.00
2018-07-12T02:49:53.042Z,13.90
2018-07-12T02:52:20.666Z,13.90
2018-07-12T02:54:48.526Z,13.90
2018-07-12T02:57:17.179Z,14.00
2018-07-12T02:59:44.844Z,14.10
2018-07-12T03:02:12.336Z,14.10
2018-07-12T03:04:40.246Z,14.10
2018-07-12T03:07:07.490Z,14.00
2018-07-12T03:09:36.575Z,14.00
2018-07-12T03:12:03.946Z,14.00
2018-07-12T03:14:31.565Z,14.00
2018-07-12T03:17:00.502Z,14.00
2018-07-12T03:19:27.954Z,14.00
2018-07-12T03:21:55.338Z,14.00
2018-07-12T03:24:23.277Z,14.00
2018-07-12T03:26:50.686Z,14.00
2018-07-12T03:29:18.297Z,14.00
2018-07-12T03:31:45.859Z,14.10
2018-07-12T03:34:13.148Z,14.10
2018-07-12T03:36:41.210Z,14.10
2018-07-12T03:39:08.840Z,14.20
2018-07-12T03:41:36.074Z,14.20
2018-07-12T03:44:03.346Z,14.20
2018-07-12T03:46:30.589Z,14.20
2018-07-12T03:48:58.018Z,14.20
2018-07-12T03:51:25.265Z,14.10
2018-07-12T03:53:52.492Z,14.20
2018-07-12T03:56:19.723Z,14.20
2018-07-12T03:58:48.561Z,14.20
2018-07-12T04:01:16.149Z,14.20
2018-07-12T04:03:43.716Z,14.30
2018-07-12T04:06:11.685Z,14.30
2018-07-12T04:08:39.842Z,14.30
2018-07-12T04:11:07.276Z,14.30
2018-07-12T04:13:36.644Z,14.30
2018-07-12T04:16:06.318Z,14.30
2018-07-12T04:18:33.726Z,14.30
2018-07-12T04:21:00.974Z,14.30
2018-07-12T04:23:28.409Z,14.30
2018-07-12T04:25:55.730Z,14.40
2018-07-12T04:28:22.982Z,14.40
2018-07-12T04:30:50.650Z,14.40
2018-07-12T04:33:18.039Z,14.50
2018-07-12T04:35:46.187Z,14.50
2018-07-12T04:38:13.849Z,14.60
2018-07-12T04:40:42.528Z,14.60
2018-07-12T04:43:11.850Z,14.60
2018-07-12T04:48:06.644Z,14.70
2018-07-12T04:53:01.836Z,15.00
2018-07-12T04:55:29.517Z,15.10
2018-07-12T04:57:56.822Z,15.20
2018-07-12T05:00:24.154Z,15.20
2018-07-12T05:02:51.386Z,15.30
2018-07-12T05:05:18.631Z,15.40
2018-07-12T05:07:46.136Z,15.50
2018-07-12T05:10:13.375Z,15.50
2018-07-12T05:12:40.616Z,15.60
2018-07-12T05:15:07.995Z,15.70
2018-07-12T05:17:35.217Z,15.70
2018-07-12T05:20:02.479Z,15.80
2018-07-12T05:22:29.877Z,15.80
2018-07-12T05:24:57.395Z,15.70
2018-07-12T05:27:25.380Z,15.80
2018-07-12T05:29:52.634Z,15.70
2018-07-12T05:32:21.084Z,15.80
2018-07-12T05:34:49.440Z,15.80
2018-07-12T05:37:18.237Z,15.90
2018-07-12T05:39:47.432Z,15.90
2018-07-12T05:42:16.123Z,16.00
2018-07-12T05:47:13.589Z,16.00
2018-07-12T05:49:42.329Z,16.00
2018-07-12T05:52:11.144Z,16.00
2018-07-12T05:54:40.533Z,16.10
2018-07-12T05:57:09.537Z,16.20
2018-07-12T05:59:37.900Z,16.30
2018-07-12T06:02:19.944Z,16.40
2018-07-12T06:04:52.268Z,16.60
2018-07-12T06:07:26.035Z,16.70
2018-07-12T06:09:54.321Z,16.70
2018-07-12T06:12:22.593Z,16.80
2018-07-12T06:14:51.240Z,16.90
2018-07-12T06:17:19.743Z,16.80
2018-07-12T06:19:48.418Z,16.90
2018-07-12T06:22:18.470Z,17.10
2018-07-12T06:24:46.856Z,17.30
2018-07-12T06:27:15.938Z,17.40
2018-07-12T06:29:45.294Z,17.60
2018-07-12T06:32:13.699Z,17.70
2018-07-12T06:34:42.190Z,17.80
2018-07-12T06:37:10.821Z,18.00
2018-07-12T06:39:39.541Z,17.80
2018-07-12T06:42:08.116Z,18.10
2018-07-12T06:44:36.866Z,18.20
2018-07-12T06:47:05.266Z,18.30
2018-07-12T06:49:33.625Z,18.40
2018-07-12T06:52:02.010Z,18.50
2018-07-12T06:54:30.304Z,18.60
2018-07-12T06:56:59.001Z,18.60
2018-07-12T06:59:27.603Z,18.80
2018-07-12T07:01:57.121Z,19.00
2018-07-12T07:04:25.540Z,19.10
2018-07-12T07:06:53.816Z,19.00
2018-07-12T07:09:23.074Z,18.90
2018-07-12T07:11:52.520Z,19.00
2018-07-12T07:14:22.671Z,19.10
2018-07-12T07:16:52.309Z,19.10
2018-07-12T07:21:50.882Z,18.80
2018-07-12T07:26:48.934Z,18.20
2018-07-12T07:29:17.632Z,18.00
2018-07-12T07:31:46.794Z,17.80
2018-07-12T07:34:15.905Z,17.70
2018-07-12T07:36:44.350Z,17.60
2018-07-12T07:39:12.918Z,17.50
2018-07-12T07:41:41.182Z,17.60
2018-07-12T07:44:12.114Z,17.60
2018-07-12T07:46:41.785Z,17.60
2018-07-12T07:49:13.978Z,17.70
2018-07-12T07:51:42.666Z,17.80
2018-07-12T07:54:10.995Z,18.10
2018-07-12T07:56:39.257Z,18.20
2018-07-12T07:59:07.551Z,18.30
2018-07-12T08:01:35.830Z,18.50
2018-07-12T08:04:05.188Z,18.60
2018-07-12T08:06:33.530Z,18.60
2018-07-12T08:09:02.497Z,18.80
2018-07-12T08:11:33.801Z,18.90
2018-07-12T08:14:03.298Z,19.20
2018-07-12T08:16:32.124Z,19.60
2018-07-12T08:19:01.271Z,20.30
2018-07-12T08:21:30.288Z,21.60
2018-07-12T08:23:59.378Z,22.70
2018-07-12T08:26:28.576Z,22.60
2018-07-12T08:28:57.364Z,22.60
2018-07-12T08:31:26.099Z,22.40
2018-07-12T08:33:54.533Z,22.10
2018-07-12T08:36:23.576Z,21.90
2018-07-12T08:38:52.678Z,21.90
2018-07-12T08:41:22.205Z,21.70
2018-07-12T08:43:51.750Z,21.60
2018-07-12T08:46:20.924Z,21.50
2018-07-12T08:48:49.898Z,21.40
2018-07-12T08:51:19.134Z,21.30
2018-07-12T08:53:47.534Z,20.90
2018-07-12T08:56:17.192Z,20.70
2018-07-12T08:58:45.886Z,20.70
2018-07-12T09:01:15.194Z,20.90
2018-07-12T09:03:44.054Z,21.00
2018-07-12T09:06:14.240Z,21.00
2018-07-12T09:08:42.980Z,21.10
2018-07-12T09:11:11.842Z,21.30
2018-07-12T09:13:41.320Z,21.90
2018-07-12T09:16:10.789Z,22.30
2018-07-12T09:18:40.574Z,22.60
2018-07-12T09:21:10.102Z,22.50
2018-07-12T09:23:40.002Z,22.50
2018-07-12T09:26:10.038Z,22.20
2018-07-12T09:28:39.402Z,21.90
2018-07-12T09:31:07.979Z,22.00
2018-07-12T09:33:36.842Z,22.30
2018-07-12T09:36:05.575Z,22.70
2018-07-12T09:41:15.491Z,23.20
2018-07-12T09:43:45.430Z,24.00
2018-07-12T09:46:14.895Z,23.90
2018-07-12T09:48:44.428Z,23.50
2018-07-12T09:51:13.953Z,23.40
2018-07-12T09:53:44.436Z,23.60
2018-07-12T09:56:14.194Z,23.60
2018-07-12T09:58:43.994Z,24.50
2018-07-12T10:01:21.845Z,25.40
2018-07-12T10:03:53.129Z,25.20
2018-07-12T10:06:26.953Z,25.10
2018-07-12T10:09:01.590Z,25.50
2018-07-12T10:11:36.291Z,26.20
2018-07-12T10:14:10.689Z,26.90
2018-07-12T10:16:58.338Z,26.90
2018-07-12T10:19:30.157Z,26.90
2018-07-12T10:22:16.839Z,27.00
2018-07-12T10:24:49.039Z,27.40
2018-07-12T10:27:18.224Z,27.10
2018-07-12T10:29:47.296Z,25.40
2018-07-12T10:32:15.708Z,25.00
2018-07-12T10:34:44.275Z,24.40
2018-07-12T10:37:13.434Z,23.50
2018-07-12T10:39:47.083Z,22.70
2018-07-12T10:42:15.982Z,22.30
2018-07-12T10:44:44.702Z,21.80
2018-07-12T10:47:15.055Z,21.70
2018-07-12T10:49:43.742Z,21.50
2018-07-12T10:52:12.877Z,21.50
2018-07-12T10:54:42.031Z,21.60
2018-07-12T10:57:12.714Z,21.70
2018-07-12T10:59:42.387Z,21.70
2018-07-12T11:02:13.619Z,22.00
2018-07-12T11:04:44.478Z,22.20
2018-07-12T11:07:15.454Z,22.50
2018-07-12T11:09:45.319Z,22.80
2018-07-12T11:12:16.203Z,23.10
2018-07-12T11:14:45.549Z,23.00
2018-07-12T11:17:15.007Z,23.00
2018-07-12T11:19:43.931Z,23.10
2018-07-12T11:22:12.584Z,23.40
2018-07-12T11:24:41.158Z,23.20
2018-07-12T11:27:10.629Z,23.20
2018-07-12T11:29:54.048Z,23.40
2018-07-12T11:32:26.149Z,23.60
2018-07-12T11:37:26.876Z,23.60
2018-07-12T11:39:55.438Z,23.40
2018-07-12T11:42:24.226Z,23.40
2018-07-12T11:44:52.949Z,23.30
2018-07-12T11:47:21.922Z,23.30
2018-07-12T11:49:51.345Z,23.50
2018-07-12T11:52:20.142Z,23.80
2018-07-12T11:54:58.446Z,24.00
2018-07-12T11:57:27.077Z,23.70
2018-07-12T11:59:55.708Z,23.50
2018-07-12T12:02:27.092Z,23.40
2018-07-12T12:04:56.125Z,23.50
2018-07-12T12:07:25.106Z,23.60
2018-07-12T12:10:07.662Z,23.80
2018-07-12T12:12:36.552Z,23.90
2018-07-12T12:15:05.718Z,24.00
2018-07-12T12:17:34.734Z,24.20
2018-07-12T12:20:03.895Z,24.50
2018-07-12T12:22:33.377Z,24.30
2018-07-12T12:25:02.729Z,24.10
2018-07-12T12:27:33.598Z,24.10
2018-07-12T12:30:03.167Z,24.30
2018-07-12T12:32:40.255Z,23.70
2018-07-12T12:35:09.049Z,23.60
2018-07-12T12:37:37.654Z,23.60
2018-07-12T12:40:06.095Z,23.60
2018-07-12T12:42:57.290Z,23.70
2018-07-12T12:45:25.822Z,23.80
2018-07-12T12:47:54.358Z,24.00
2018-07-12T12:50:26.330Z,24.30
2018-07-12T12:52:55.020Z,24.70
2018-07-12T12:55:23.842Z,24.90
2018-07-12T12:57:53.840Z,24.70
2018-07-12T13:00:23.576Z,24.50
2018-07-12T13:02:52.613Z,24.50
2018-07-12T13:07:50.390Z,24.30
2018-07-12T13:10:30.331Z,24.30
2018-07-12T13:15:39.012Z,24.70
2018-07-12T13:18:08.517Z,24.90
2018-07-12T13:20:39.121Z,24.80
2018-07-12T13:23:07.462Z,25.00
2018-07-12T13:25:37.101Z,25.10
2018-07-12T13:28:05.497Z,25.30
2018-07-12T13:30:34.166Z,25.30
2018-07-12T13:33:03.155Z,25.30
2018-07-12T13:35:32.090Z,25.30
2018-07-12T13:38:01.034Z,25.20
2018-07-12T13:40:31.754Z,25.30
2018-07-12T13:45:30.795Z,25.30
2018-07-12T13:48:00.106Z,25.30
2018-07-12T13:50:31.358Z,25.00
2018-07-12T13:53:00.468Z,24.90
2018-07-12T13:55:28.805Z,24.80
2018-07-12T13:57:57.085Z,24.60
2018-07-12T14:00:37.170Z,24.40
2018-07-12T14:03:05.665Z,24.10
2018-07-12T14:05:34.010Z,24.00
2018-07-12T14:08:02.257Z,23.90
2018-07-12T14:10:30.522Z,24.00
2018-07-12T14:12:58.772Z,24.10
2018-07-12T14:15:27.042Z,24.30
2018-07-12T14:17:55.502Z,24.50
2018-07-12T14:20:23.885Z,24.60
2018-07-12T14:22:52.147Z,24.60
2018-07-12T14:25:20.447Z,24.70
2018-07-12T14:27:51.938Z,24.50
2018-07-12T14:30:21.982Z,24.40
2018-07-12T14:32:52.041Z,24.40
2018-07-12T14:35:20.310Z,24.30
2018-07-12T14:37:48.572Z,24.40
2018-07-12T14:40:17.188Z,24.40
2018-07-12T14:42:46.057Z,24.60
2018-07-12T14:45:14.855Z,24.70
2018-07-12T14:47:43.616Z,24.80
2018-07-12T14:50:13.750Z,24.90
2018-07-12T14:52:42.651Z,24.80
2018-07-12T14:55:14.182Z,24.70
2018-07-12T14:57:45.018Z,24.70
2018-07-12T15:00:14.317Z,24.60
2018-07-12T15:02:43.643Z,24.60
2018-07-12T15:05:12.977Z,24.50
2018-07-12T15:07:42.029Z,24.40
2018-07-12T15:10:11.271Z,24.50
2018-07-12T15:12:40.515Z,24.60
2018-07-12T15:15:10.727Z,24.60
2018-07-12T15:17:40.067Z,24.70
2018-07-12T15:20:09.892Z,24.70
2018-07-12T15:22:38.647Z,24.70
2018-07-12T15:25:07.514Z,24.70
2018-07-12T15:27:36.935Z,24.80
2018-07-12T15:30:05.531Z,24.80
2018-07-12T15:32:34.116Z,24.90
2018-07-12T15:35:03.254Z,24.90
2018-07-12T15:40:06.697Z,25.10
2018-07-12T15:42:35.109Z,25.20
2018-07-12T15:45:04.121Z,25.20
2018-07-12T15:47:32.808Z,25.20
2018-07-12T15:50:02.005Z,25.30
2018-07-12T15:52:32.429Z,25.30
2018-07-12T15:55:01.258Z,25.30
2018-07-12T15:57:33.918Z,25.30
2018-07-12T16:00:02.361Z,25.20
2018-07-12T16:02:30.659Z,25.10
2018-07-12T16:04:59.853Z,25.00
2018-07-12T16:07:28.589Z,25.00
2018-07-12T16:09:57.499Z,24.90
2018-07-12T16:12:25.745Z,24.80
2018-07-12T16:14:55.206Z,24.70
2018-07-12T16:17:24.335Z,24.60
2018-07-12T16:19:52.673Z,24.40
2018-07-12T16:22:28.058Z,24.40
2018-07-12T16:24:56.270Z,24.30
2018-07-12T16:27:24.550Z,24.30
2018-07-12T16:29:52.954Z,24.20
2018-07-12T16:32:21.146Z,24.10
2018-07-12T16:34:52.617Z,24.10
2018-07-12T16:37:24.903Z,24.00
2018-07-12T16:39:56.200Z,24.00
2018-07-12T16:42:28.541Z,24.00
2018-07-12T16:45:07.647Z,23.90
2018-07-12T16:47:36.402Z,24.00
2018-07-12T16:50:08.389Z,23.90
2018-07-12T16:52:40.187Z,23.90
2018-07-12T16:55:12.931Z,23.90
2018-07-12T17:00:20.807Z,23.80
2018-07-12T17:02:53.798Z,23.80
2018-07-12T17:05:26.310Z,23.90
2018-07-12T17:07:58.993Z,23.90
2018-07-12T17:10:27.522Z,23.90
2018-07-12T17:13:00.974Z,23.80
2018-07-12T17:15:29.355Z,23.80
2018-07-12T17:18:00.206Z,23.80
2018-07-12T17:20:29.488Z,23.70
2018-07-12T17:22:58.197Z,23.70
2018-07-12T17:25:27.730Z,23.60
2018-07-12T17:27:58.828Z,23.50
2018-07-12T17:30:29.585Z,23.50
2018-07-12T17:32:59.002Z,23.40
2018-07-12T17:35:29.931Z,23.30
2018-07-12T17:38:02.027Z,23.30
2018-07-12T17:40:30.463Z,23.30
2018-07-12T17:42:59.041Z,23.30
2018-07-12T17:45:27.426Z,23.40
2018-07-12T17:48:01.036Z,23.40
2018-07-12T17:50:32.877Z,23.40
2018-07-12T17:53:04.413Z,23.50
2018-07-12T17:55:35.102Z,23.50
2018-07-12T17:58:06.847Z,23.50
2018-07-12T18:00:35.324Z,23.50
2018-07-12T18:03:04.122Z,23.40
2018-07-12T18:05:33.237Z,23.50
2018-07-12T18:08:05.539Z,23.50
2018-07-12T18:10:37.679Z,23.50
2018-07-12T18:13:10.287Z,23.50
2018-07-12T18:15:38.834Z,23.40
2018-07-12T18:18:09.302Z,23.40
2018-07-12T18:20:42.197Z,23.20
2018-07-12T18:23:14.268Z,23.20
2018-07-12T18:25:45.939Z,23.10
2018-07-12T18:28:18.371Z,23.00
2018-07-12T18:30:47.175Z,22.90
2018-07-12T18:33:19.208Z,22.90
2018-07-12T18:35:47.672Z,22.90
2018-07-12T18:38:16.455Z,23.00
2018-07-12T18:40:48.255Z,23.10
2018-07-12T18:43:19.078Z,23.10
2018-07-12T18:45:47.497Z,22.80
2018-07-12T18:48:18.914Z,22.20
2018-07-12T18:50:47.361Z,21.80
2018-07-12T18:53:15.666Z,21.50
2018-07-12T18:55:43.967Z,21.30
2018-07-12T18:58:12.877Z,21.20
2018-07-12T19:00:45.931Z,21.20
2018-07-12T19:03:15.456Z,21.10
2018-07-12T19:05:48.806Z,21.10
2018-07-12T19:08:17.581Z,20.90
2018-07-12T19:10:50.137Z,20.90
2018-07-12T19:13:19.583Z,20.70
2018-07-12T19:15:52.267Z,20.70
2018-07-12T19:18:22.630Z,20.60
2018-07-12T19:20:51.551Z,20.60
2018-07-12T19:23:20.739Z,20.50
2018-07-12T19:25:49.418Z,20.40
2018-07-12T19:28:19.298Z,20.30
2018-07-12T19:30:50.119Z,20.30
2018-07-12T19:33:21.955Z,20.20
2018-07-12T19:35:51.768Z,20.10
2018-07-12T19:38:20.286Z,20.00
2018-07-12T19:40:49.463Z,20.00
2018-07-12T19:43:18.323Z,19.90
2018-07-12T19:45:46.883Z,19.90
2018-07-12T19:48:15.235Z,19.90
2018-07-12T19:50:45.383Z,19.90
2018-07-12T19:53:14.485Z,19.80
2018-07-12T19:55:46.836Z,19.80
2018-07-12T19:58:15.896Z,19.80
2018-07-12T20:00:48.221Z,19.70
2018-07-12T20:03:16.579Z,19.70
2018-07-12T20:05:45.396Z,19.50
2018-07-12T20:08:14.975Z,19.20
2018-07-12T20:10:43.363Z,19.00
2018-07-12T20:13:11.726Z,19.00
2018-07-12T20:15:40.136Z,19.00
2018-07-12T20:18:08.529Z,19.00
2018-07-12T20:20:36.968Z,19.00
2018-07-12T20:23:06.606Z,19.00
2018-07-12T20:25:34.909Z,19.00
2018-07-12T20:28:06.301Z,19.10
2018-07-12T20:30:35.019Z,19.10
2018-07-12T20:33:03.856Z,19.10
2018-07-12T20:35:32.094Z,19.20
2018-07-12T20:38:02.070Z,19.20
2018-07-12T20:40:34.125Z,19.20
2018-07-12T20:43:03.746Z,19.20
2018-07-12T20:45:32.147Z,19.20
2018-07-12T20:48:00.760Z,19.20
2018-07-12T20:50:32.807Z,19.10
2018-07-12T20:53:01.185Z,19.10
2018-07-12T20:55:31.812Z,19.10
2018-07-12T20:58:02.790Z,19.00
2018-07-12T21:00:37.089Z,19.00
2018-07-12T21:03:07.442Z,18.90
2018-07-12T21:05:38.591Z,18.90
2018-07-12T21:08:06.941Z,18.80
2018-07-12T21:10:36.182Z,18.80
2018-07-12T21:13:08.213Z,18.80
2018-07-12T21:15:36.950Z,18.70
2018-07-12T21:18:08.505Z,18.70
2018-07-12T21:20:37.360Z,18.70
2018-07-12T21:23:06.622Z,18.60
2018-07-12T21:25:35.310Z,18.60
2018-07-12T21:28:07.394Z,18.60
2018-07-12T21:30:35.753Z,18.60
2018-07-12T21:33:07.331Z,18.60
2018-07-12T21:35:36.400Z,18.60
2018-07-12T21:38:04.951Z,18.50
2018-07-12T21:40:33.668Z,18.50
2018-07-12T21:43:02.554Z,18.50
2018-07-12T21:45:32.757Z,18.40
2018-07-12T21:50:33.463Z,18.40
2018-07-12T21:53:03.447Z,18.40
2018-07-12T21:55:34.854Z,18.40
2018-07-12T21:58:06.718Z,18.30
2018-07-12T22:00:38.299Z,18.30
2018-07-12T22:03:06.965Z,18.20
2018-07-12T22:05:35.881Z,18.20
2018-07-12T22:08:14.085Z,18.10
2018-07-12T22:10:46.561Z,18.10
2018-07-12T22:13:15.492Z,18.00
2018-07-12T22:15:46.558Z,18.00
2018-07-12T22:18:15.155Z,17.90
2018-07-12T22:20:47.000Z,17.90
2018-07-12T22:23:16.725Z,17.90
2018-07-12T22:25:49.082Z,17.80
2018-07-12T22:28:18.191Z,17.80
2018-07-12T22:30:48.133Z,17.80
2018-07-12T22:33:20.013Z,17.80
2018-07-12T22:35:48.437Z,17.80
2018-07-12T22:38:18.940Z,17.90
2018-07-12T22:40:50.267Z,17.90
2018-07-12T22:43:23.087Z,18.00
2018-07-12T22:45:54.229Z,18.00
2018-07-12T22:48:25.965Z,18.00
2018-07-12T22:50:57.297Z,18.00
2018-07-12T22:53:27.576Z,18.00
2018-07-12T22:55:58.073Z,18.10
2018-07-12T22:58:28.532Z,18.10
2018-07-12T23:00:59.848Z,18.10
2018-07-12T23:03:28.224Z,18.10
2018-07-12T23:08:28.082Z,18.00
2018-07-12T23:10:56.386Z,17.90
2018-07-12T23:13:24.662Z,17.90
2018-07-12T23:15:52.930Z,17.80
2018-07-12T23:18:22.238Z,17.80
2018-07-12T23:20:50.513Z,17.70
2018-07-12T23:23:18.874Z,17.60
2018-07-12T23:25:47.127Z,17.60
2018-07-12T23:28:20.522Z,17.50
2018-07-12T23:30:48.788Z,17.40
2018-07-12T23:33:17.102Z,17.40
2018-07-12T23:35:45.696Z,17.40
2018-07-12T23:38:16.900Z,17.30
2018-07-12T23:40:46.002Z,17.30
2018-07-12T23:43:14.594Z,17.30
2018-07-12T23:45:42.871Z,17.30
2018-07-12T23:48:11.152Z,17.30
2018-07-12T23:50:40.871Z,17.30
2018-07-12T23:53:09.580Z,17.30
2018-07-12T23:55:37.877Z,17.20
2018-07-12T23:58:09.318Z,17.20
